Cliff, Kentucky
Current Conditions -  °F | °C
As of 11:35 AM on Monday 26 Jan 2015 (Local Time) from KSJS Reporting Station
Light Snow Light Snow  
Wind Chill: 20°   Ceiling: 800
Heat Index: 27°   Visibility: 1.2mi
Dew Point: 26°   Wind: 7mph
Humidity: 94%   Direction: 290°WNW
Pressure: 29.82"   Gusts: NA
Location:  37.6405°N, 82.8256°W
Report Text: KSJS 261635Z AUTO 29006KT 1 1/4SM -SN OVC008 M03/M04 A2982 RMK AO2 T10271036
Loading
Personal Weather Stations






























Interactive Weather Map New forecast layout! Learn more

10-Day Weather Forecast

Advertisements
Track Severe Weather on mobile